Time;durP1;ratioP1;P1;durP2;ratioP2;P2;SDS_P1;SDS_P2;PMS_P1;PMS_P2;Temp;Humidity;BMP_temperature;BMP_pressure;BME280_temperature;BME280_humidity;BME280_pressure;Samples;Min_cycle;Max_cycle;Signal;HPM_P1;HPM_P2
2023/03/08 00:01:58;;;;;;;14.20;11.53;;;4.60;99.90;;;;;;4905021;29;20631;-90
2023/03/08 00:04:41;;;;;;;14.23;12.03;;;4.70;99.90;;;;;;4904654;29;20206;-89
2023/03/08 00:07:07;;;;;;;13.90;11.67;;;4.60;99.90;;;;;;4901559;29;20178;-90
2023/03/08 00:09:36;;;;;;;13.37;10.90;;;4.60;99.90;;;;;;4900690;29;20182;-89
2023/03/08 00:12:02;;;;;;;14.43;11.83;;;4.50;99.90;;;;;;4901501;29;20236;-91
2023/03/08 00:14:29;;;;;;;13.20;10.67;;;4.40;99.90;;;;;;4900169;29;20230;-92
2023/03/08 00:16:56;;;;;;;12.97;9.73;;;4.30;99.90;;;;;;4919903;29;20207;-88
2023/03/08 00:19:29;;;;;;;11.17;9.87;;;4.40;99.90;;;;;;4921866;29;20226;-89
2023/03/08 00:21:54;;;;;;;12.67;9.97;;;4.30;99.90;;;;;;4907026;29;20190;-90
2023/03/08 00:24:22;;;;;;;12.53;10.03;;;4.40;99.90;;;;;;4903675;29;20243;-90
2023/03/08 00:26:51;;;;;;;12.43;10.07;;;4.50;99.90;;;;;;4902035;29;20171;-90
2023/03/08 00:29:19;;;;;;;11.67;9.67;;;4.60;99.90;;;;;;4900909;29;20267;-92
2023/03/08 00:31:49;;;;;;;10.97;9.10;;;4.70;99.90;;;;;;4901250;29;20174;-89
2023/03/08 00:34:16;;;;;;;10.90;8.53;;;4.90;99.90;;;;;;4904718;29;20297;-90
2023/03/08 00:36:41;;;;;;;11.37;8.97;;;5.10;99.90;;;;;;4901978;29;20285;-90
2023/03/08 00:39:08;;;;;;;10.07;8.90;;;5.10;99.90;;;;;;4903039;29;20198;-90
2023/03/08 00:41:34;;;;;;;10.17;8.60;;;5.20;99.90;;;;;;4900741;29;20170;-90
2023/03/08 00:44:05;;;;;;;9.03;8.03;;;5.30;99.90;;;;;;4901822;29;20186;-89
2023/03/08 00:46:31;;;;;;;8.83;7.60;;;5.30;99.90;;;;;;4899590;29;20178;-89
2023/03/08 00:48:57;;;;;;;9.83;7.60;;;5.50;99.90;;;;;;4898793;29;20197;-91
2023/03/08 00:51:25;;;;;;;9.23;7.83;;;5.60;99.90;;;;;;4899753;29;20185;-91
2023/03/08 00:53:50;;;;;;;9.00;7.43;;;5.60;99.90;;;;;;4906879;29;20253;-91
2023/03/08 00:56:17;;;;;;;8.90;7.57;;;5.40;99.90;;;;;;4910111;29;20201;-90
2023/03/08 00:58:53;;;;;;;10.43;8.03;;;5.30;99.90;;;;;;4900672;29;20658;-90
2023/03/08 01:01:19;;;;;;;8.57;7.47;;;5.40;99.90;;;;;;4903245;29;20194;-88
2023/03/08 01:03:44;;;;;;;9.33;7.80;;;5.40;99.90;;;;;;4921675;29;20170;-90
2023/03/08 01:06:12;;;;;;;8.83;7.43;;;5.60;99.90;;;;;;4913793;29;20206;-89
2023/03/08 01:08:55;;;;;;;9.80;7.27;;;5.30;99.90;;;;;;4905575;29;20542;-88
2023/03/08 01:11:25;;;;;;;9.83;7.50;;;5.50;99.90;;;;;;4901630;29;20190;-90
2023/03/08 01:13:53;;;;;;;8.93;7.70;;;5.40;99.90;;;;;;4900902;29;20301;-89
2023/03/08 01:16:25;;;;;;;9.03;7.87;;;5.40;99.90;;;;;;4901373;29;20191;-91
2023/03/08 01:18:51;;;;;;;8.90;6.63;;;5.40;99.90;;;;;;4899765;29;20663;-91
2023/03/08 01:21:18;;;;;;;10.27;7.63;;;5.40;99.90;;;;;;4899168;29;20178;-90
2023/03/08 01:23:46;;;;;;;9.70;8.00;;;5.20;99.90;;;;;;4899187;29;20648;-90
2023/03/08 01:26:15;;;;;;;9.90;8.23;;;5.30;99.90;;;;;;4899116;29;20170;-89
2023/03/08 01:28:42;;;;;;;10.70;8.43;;;5.50;99.90;;;;;;4900005;29;20171;-89
2023/03/08 01:31:23;;;;;;;10.67;8.30;;;5.50;99.90;;;;;;4899886;29;20178;-90
2023/03/08 01:33:50;;;;;;;9.87;8.17;;;5.50;99.90;;;;;;4900361;29;20250;-89
2023/03/08 01:36:19;;;;;;;9.60;8.00;;;5.50;99.90;;;;;;4905558;29;20215;-88
2023/03/08 01:38:45;;;;;;;12.10;8.83;;;5.60;99.90;;;;;;4912573;29;20174;-87
2023/03/08 01:41:18;;;;;;;10.37;7.97;;;5.50;99.90;;;;;;4917360;29;20258;-88
2023/03/08 01:43:44;;;;;;;10.57;8.20;;;5.50;99.90;;;;;;4911148;29;20189;-90
2023/03/08 01:46:40;;;;;;;9.83;7.73;;;5.50;99.90;;;;;;4907541;29;20272;-89
2023/03/08 01:49:25;;;;;;;8.37;6.97;;;5.50;99.90;;;;;;4917026;29;20199;-90
2023/03/08 01:51:53;;;;;;;10.03;7.30;;;5.60;99.90;;;;;;4917714;29;20197;-92
2023/03/08 01:54:27;;;;;;;8.90;7.23;;;5.40;99.90;;;;;;4909778;29;20233;-90
2023/03/08 01:57:07;;;;;;;8.60;6.50;;;5.40;99.90;;;;;;4906242;29;20193;-90
2023/03/08 01:59:37;;;;;;;8.13;6.10;;;5.40;99.90;;;;;;4904795;29;20219;-90
2023/03/08 02:02:06;;;;;;;7.53;5.20;;;5.40;99.90;;;;;;4903349;29;20178;-89
2023/03/08 02:04:35;;;;;;;7.33;5.70;;;5.40;99.90;;;;;;4886040;29;20214;-89
2023/03/08 02:07:04;;;;;;;9.93;6.57;;;5.30;99.90;;;;;;4902690;29;20226;-90
2023/03/08 02:09:30;;;;;;;8.13;6.53;;;5.30;99.90;;;;;;4904483;29;20647;-90
2023/03/08 02:12:01;;;;;;;7.63;5.67;;;5.00;99.90;;;;;;4920186;29;20207;-90
2023/03/08 02:14:30;;;;;;;10.10;6.23;;;4.80;99.90;;;;;;4916607;29;20234;-88
2023/03/08 02:16:57;;;;;;;6.67;5.43;;;4.70;99.90;;;;;;4922593;29;20222;-89
2023/03/08 02:19:46;;;;;;;9.53;6.30;;;4.60;99.90;;;;;;4924836;29;20181;-89
2023/03/08 02:22:14;;;;;;;7.60;5.87;;;4.70;99.90;;;;;;4918283;29;20194;-90
2023/03/08 02:24:40;;;;;;;6.97;5.67;;;4.70;99.90;;;;;;4897839;29;20175;-88
2023/03/08 02:27:09;;;;;;;8.40;6.50;;;4.90;99.90;;;;;;4912743;29;20206;-89
2023/03/08 02:29:38;;;;;;;7.50;5.33;;;4.90;99.90;;;;;;4907228;29;20170;-91
2023/03/08 02:32:10;;;;;;;7.13;5.50;;;4.40;99.90;;;;;;4889282;29;20174;-89
2023/03/08 02:34:41;;;;;;;7.40;5.57;;;4.30;99.90;;;;;;4903547;29;20234;-90
2023/03/08 02:37:06;;;;;;;7.23;5.93;;;4.20;99.90;;;;;;4904227;29;20197;-90
2023/03/08 02:39:32;;;;;;;7.53;5.80;;;4.10;99.90;;;;;;4906457;29;20175;-87
2023/03/08 02:41:58;;;;;;;7.37;5.37;;;3.90;99.90;;;;;;4907178;29;20706;-88
2023/03/08 02:44:25;;;;;;;7.60;5.60;;;3.70;99.90;;;;;;4913909;29;20209;-89
2023/03/08 02:46:51;;;;;;;8.27;6.03;;;3.70;99.90;;;;;;4919035;29;20231;-87
2023/03/08 02:49:18;;;;;;;8.13;5.50;;;3.60;99.90;;;;;;4921023;29;20202;-88
2023/03/08 02:51:47;;;;;;;9.13;6.47;;;3.50;99.90;;;;;;4915817;29;20205;-91
2023/03/08 02:54:12;;;;;;;7.47;5.63;;;3.50;99.90;;;;;;4910145;29;20214;-89
2023/03/08 02:56:45;;;;;;;7.47;5.33;;;3.50;99.90;;;;;;4921459;29;20195;-89
2023/03/08 02:59:14;;;;;;;6.57;4.40;;;3.50;99.90;;;;;;4919713;29;20190;-88
2023/03/08 03:01:40;;;;;;;6.27;4.07;;;3.40;99.90;;;;;;4920015;29;20209;-89
2023/03/08 03:04:09;;;;;;;7.50;4.53;;;3.20;99.90;;;;;;4918485;29;20193;-90
2023/03/08 03:06:46;;;;;;;7.47;5.13;;;3.30;99.90;;;;;;4913170;29;20215;-89
2023/03/08 03:09:15;;;;;;;7.33;5.40;;;3.30;99.90;;;;;;4908639;29;20206;-89
2023/03/08 03:11:41;;;;;;;7.50;5.43;;;3.40;99.90;;;;;;4903566;29;20276;-90
2023/03/08 03:14:32;;;;;;;8.40;5.33;;;3.40;99.90;;;;;;4902507;29;20265;-90
2023/03/08 03:16:59;;;;;;;9.73;6.73;;;3.20;99.90;;;;;;4902066;29;20170;-91
2023/03/08 03:19:26;;;;;;;10.30;6.67;;;3.20;99.90;;;;;;4902594;29;20187;-89
2023/03/08 03:21:52;;;;;;;9.47;6.30;;;3.10;99.90;;;;;;4903317;29;20182;-91
2023/03/08 03:24:19;;;;;;;9.23;6.50;;;3.10;99.90;;;;;;4902311;29;20178;-92
2023/03/08 03:26:44;;;;;;;10.73;7.60;;;3.10;99.90;;;;;;4915762;29;20171;-93
2023/03/08 03:29:11;;;;;;;8.20;5.67;;;3.20;99.90;;;;;;4924419;29;20238;-92
2023/03/08 03:31:40;;;;;;;9.57;6.93;;;3.10;99.90;;;;;;4918412;29;20194;-89
2023/03/08 03:34:08;;;;;;;8.83;6.30;;;3.00;99.90;;;;;;4910494;29;20250;-89
2023/03/08 03:36:34;;;;;;;7.37;5.30;;;3.20;99.90;;;;;;4904918;29;20337;-90
2023/03/08 03:38:59;;;;;;;8.07;6.07;;;3.10;99.90;;;;;;4903669;29;20186;-90
2023/03/08 03:41:26;;;;;;;7.60;5.13;;;3.10;99.90;;;;;;4902546;29;20171;-90
2023/03/08 03:43:51;;;;;;;5.73;4.03;;;2.90;99.90;;;;;;4904653;29;20182;-93
2023/03/08 03:46:19;;;;;;;6.33;3.73;;;2.90;99.90;;;;;;4907000;29;20178;-91
2023/03/08 03:48:46;;;;;;;7.37;5.20;;;2.70;99.90;;;;;;4903597;29;20202;-90
2023/03/08 03:51:18;;;;;;;5.50;4.10;;;2.70;99.90;;;;;;4891862;29;20187;-89
2023/03/08 03:53:46;;;;;;;5.80;4.13;;;2.80;99.90;;;;;;4906850;29;20205;-90
2023/03/08 03:56:21;;;;;;;5.43;3.33;;;2.80;99.90;;;;;;4905287;29;20193;-90
2023/03/08 03:58:49;;;;;;;5.23;3.20;;;2.70;99.90;;;;;;4905312;29;20178;-89
2023/03/08 04:01:24;;;;;;;5.97;3.70;;;2.60;99.90;;;;;;4916932;29;20185;-91
2023/03/08 04:03:51;;;;;;;5.60;4.53;;;2.80;99.90;;;;;;4918563;29;20219;-90
2023/03/08 04:06:20;;;;;;;7.10;3.70;;;2.70;99.90;;;;;;4908151;29;20166;-90
2023/03/08 04:09:28;;;;;;;7.07;4.03;;;2.70;99.90;;;;;;4904986;29;20639;-91
2023/03/08 04:12:01;;;;;;;5.63;3.47;;;2.60;99.90;;;;;;4903781;29;20170;-90
2023/03/08 04:14:30;;;;;;;4.60;3.40;;;2.90;99.90;;;;;;4914772;29;20230;-91
2023/03/08 04:16:55;;;;;;;6.00;3.47;;;2.60;99.90;;;;;;4916962;29;20190;-91
2023/03/08 04:19:31;;;;;;;4.50;3.13;;;2.60;99.90;;;;;;4914766;29;20198;-91
2023/03/08 04:21:56;;;;;;;5.87;3.17;;;2.50;99.90;;;;;;4904050;29;20719;-91
2023/03/08 04:24:42;;;;;;;4.97;3.30;;;2.50;99.90;;;;;;4909661;29;20167;-90
2023/03/08 04:27:10;;;;;;;4.67;3.57;;;2.50;99.90;;;;;;4912675;29;20173;-89
2023/03/08 04:29:35;;;;;;;5.23;3.10;;;2.50;99.90;;;;;;4919651;29;20197;-88
2023/03/08 04:32:01;;;;;;;5.70;3.23;;;2.50;99.90;;;;;;4915284;29;20174;-88
2023/03/08 04:34:27;;;;;;;4.23;3.23;;;2.50;99.90;;;;;;4908005;29;20229;-89
2023/03/08 04:40:15;;;;;;;4.50;3.20;;;2.50;99.90;;;;;;4914510;29;20254;-90
2023/03/08 04:42:41;;;;;;;4.90;3.53;;;2.50;99.90;;;;;;4906116;29;20193;-90
2023/03/08 04:45:07;;;;;;;6.20;3.73;;;2.50;99.90;;;;;;4896840;29;20206;-89
2023/03/08 04:47:36;;;;;;;4.83;3.10;;;2.60;99.90;;;;;;4903810;29;20193;-90
2023/03/08 04:50:02;;;;;;;5.73;3.63;;;2.50;99.90;;;;;;4902282;29;20277;-90
2023/03/08 04:52:31;;;;;;;4.67;3.40;;;2.50;99.90;;;;;;4901875;29;20210;-90
2023/03/08 04:54:57;;;;;;;5.10;3.80;;;2.50;99.90;;;;;;4901639;29;20297;-92
2023/03/08 04:57:23;;;;;;;4.97;3.37;;;2.60;99.90;;;;;;4901659;29;20261;-91
2023/03/08 04:59:49;;;;;;;5.43;3.87;;;2.60;99.90;;;;;;4917827;29;20177;-88
2023/03/08 05:02:15;;;;;;;5.20;3.37;;;2.50;99.90;;;;;;4922253;29;20154;-92
2023/03/08 05:04:40;;;;;;;5.00;3.67;;;2.40;99.90;;;;;;4919089;29;20209;-90
2023/03/08 05:07:06;;;;;;;5.67;4.50;;;2.70;99.90;;;;;;4903001;29;20239;-91
2023/03/08 05:09:33;;;;;;;5.20;3.70;;;2.40;99.90;;;;;;4901471;29;20186;-91
2023/03/08 05:12:14;;;;;;;4.70;3.67;;;2.40;99.90;;;;;;4918353;29;20200;-89
2023/03/08 05:14:54;;;;;;;4.97;3.67;;;2.40;99.90;;;;;;4918582;29;20214;-90
2023/03/08 05:17:20;;;;;;;6.67;3.63;;;2.60;99.90;;;;;;4916747;29;20634;-90
2023/03/08 05:19:49;;;;;;;4.87;3.50;;;2.60;99.90;;;;;;4900847;29;20185;-90
2023/03/08 05:22:16;;;;;;;4.77;3.40;;;2.40;99.90;;;;;;4917044;29;20202;-90
2023/03/08 05:24:45;;;;;;;5.20;3.67;;;2.40;99.90;;;;;;4917008;29;20181;-89
2023/03/08 05:27:10;;;;;;;4.60;3.40;;;2.30;99.90;;;;;;4917513;29;20649;-89
2023/03/08 05:29:38;;;;;;;4.80;3.67;;;2.40;99.90;;;;;;4915664;29;20265;-89
2023/03/08 05:32:04;;;;;;;5.67;3.50;;;2.40;99.90;;;;;;4916415;29;20685;-91
2023/03/08 05:34:30;;;;;;;5.00;3.60;;;2.40;99.90;;;;;;4918426;29;20218;-91
2023/03/08 05:36:56;;;;;;;4.40;3.40;;;2.40;99.90;;;;;;4918081;29;20181;-90
2023/03/08 05:39:21;;;;;;;4.37;3.57;;;2.20;99.90;;;;;;4894977;29;20174;-90
2023/03/08 05:41:47;;;;;;;4.97;3.97;;;2.30;99.90;;;;;;4921102;29;20253;-90
2023/03/08 05:44:13;;;;;;;4.70;3.33;;;2.30;99.90;;;;;;4924255;29;20221;-89
2023/03/08 05:46:48;;;;;;;4.47;3.40;;;2.20;99.90;;;;;;4925778;29;20182;-92
2023/03/08 05:49:13;;;;;;;4.67;2.90;;;2.10;99.90;;;;;;4929650;29;20202;-90
2023/03/08 05:51:39;;;;;;;4.57;3.27;;;2.10;99.90;;;;;;4936967;29;20185;-88
2023/03/08 05:54:05;;;;;;;4.50;3.63;;;2.20;99.90;;;;;;4932065;29;20221;-91
2023/03/08 05:56:35;;;;;;;4.37;3.17;;;2.10;99.90;;;;;;4936669;29;20202;-89
2023/03/08 05:59:04;;;;;;;4.57;3.27;;;2.20;99.90;;;;;;4943496;29;20177;-90
2023/03/08 06:01:44;;;;;;;4.00;3.40;;;2.20;99.90;;;;;;4927091;29;20167;-90
2023/03/08 06:04:44;;;;;;;5.03;3.43;;;2.20;99.90;;;;;;4939476;29;20205;-92
2023/03/08 06:07:19;;;;;;;4.83;3.50;;;2.20;99.90;;;;;;4937314;29;20214;-90
2023/03/08 06:09:50;;;;;;;5.33;3.63;;;2.20;99.90;;;;;;4928291;29;20177;-90
2023/03/08 06:12:17;;;;;;;5.20;4.30;;;2.50;99.90;;;;;;4900804;29;20182;-90
2023/03/08 06:15:14;;;;;;;5.13;4.10;;;2.30;99.90;;;;;;4925879;29;20238;-91
2023/03/08 06:17:48;;;;;;;6.93;4.33;;;2.30;99.90;;;;;;4931516;29;20178;-90
2023/03/08 06:20:31;;;;;;;5.63;4.30;;;2.40;99.90;;;;;;4937523;29;20186;-90
2023/03/08 06:22:59;;;;;;;4.57;4.07;;;2.40;99.90;;;;;;4920206;29;20182;-88
2023/03/08 06:25:26;;;;;;;4.87;4.00;;;2.50;99.90;;;;;;4941349;29;20249;-90
2023/03/08 06:27:52;;;;;;;5.53;4.43;;;2.40;99.90;;;;;;4942638;29;20178;-90
2023/03/08 06:31:07;;;;;;;5.67;4.40;;;2.40;99.90;;;;;;4927099;29;20189;-91
2023/03/08 06:33:36;;;;;;;5.87;4.73;;;2.40;99.90;;;;;;4935762;29;20500;-91
2023/03/08 06:36:26;;;;;;;6.63;5.30;;;2.40;99.90;;;;;;4930048;29;20196;-92
2023/03/08 06:39:13;;;;;;;5.87;4.50;;;2.40;99.90;;;;;;4924467;29;20202;-90
2023/03/08 06:41:47;;;;;;;6.00;4.23;;;2.40;99.90;;;;;;4923005;29;20214;-90
2023/03/08 06:44:21;;;;;;;5.53;4.17;;;2.30;99.90;;;;;;4895153;29;20210;-90
2023/03/08 06:46:47;;;;;;;5.83;4.63;;;2.30;99.90;;;;;;4926501;29;20174;-91
2023/03/08 06:49:13;;;;;;;7.00;4.50;;;2.20;99.90;;;;;;4930685;29;20192;-88
2023/03/08 06:52:01;;;;;;;7.53;5.70;;;2.40;99.90;;;;;;4909504;29;20163;-91
2023/03/08 06:54:30;;;;;;;6.50;5.73;;;2.20;99.90;;;;;;4937192;29;20229;-92
2023/03/08 06:56:58;;;;;;;6.87;4.90;;;2.30;99.90;;;;;;4939856;29;20194;-90
2023/03/08 06:59:25;;;;;;;6.97;5.33;;;2.20;99.90;;;;;;4913600;29;20190;-88
2023/03/08 07:01:50;;;;;;;7.33;5.70;;;2.30;99.90;;;;;;4929348;29;20193;-89
2023/03/08 07:04:19;;;;;;;8.13;6.17;;;2.30;99.90;;;;;;4924258;29;20221;-89
2023/03/08 07:06:48;;;;;;;6.70;5.27;;;2.20;99.90;;;;;;4904684;29;20155;-90
2023/03/08 07:09:20;;;;;;;6.43;5.00;;;2.20;99.90;;;;;;4918631;29;20182;-90
2023/03/08 07:11:54;;;;;;;6.93;5.67;;;2.20;99.90;;;;;;4919608;29;20171;-91
2023/03/08 07:14:20;;;;;;;6.00;4.43;;;2.20;99.90;;;;;;4922355;29;20218;-91
2023/03/08 07:16:48;;;;;;;6.73;5.00;;;2.30;99.90;;;;;;4932233;29;20190;-91
2023/03/08 07:19:16;;;;;;;5.53;4.63;;;2.40;99.90;;;;;;4921178;29;20280;-91
2023/03/08 07:21:43;;;;;;;9.03;6.33;;;2.50;99.90;;;;;;4910946;29;20182;-92
2023/03/08 07:24:10;;;;;;;8.30;5.93;;;2.30;99.90;;;;;;4927639;29;20250;-92
2023/03/08 07:26:36;;;;;;;6.40;5.50;;;2.30;99.90;;;;;;4876021;29;20643;-91
2023/03/08 07:29:03;;;;;;;7.37;5.87;;;2.30;99.90;;;;;;4903724;29;20197;-90
2023/03/08 07:31:31;;;;;;;6.53;5.10;;;2.50;99.90;;;;;;4903671;29;20245;-90
2023/03/08 07:33:57;;;;;;;6.10;5.07;;;2.40;99.90;;;;;;4915776;29;20242;-89
2023/03/08 07:36:22;;;;;;;6.43;5.00;;;2.40;99.90;;;;;;4899828;29;20274;-92
2023/03/08 07:38:48;;;;;;;5.47;4.20;;;2.30;99.90;;;;;;4903576;29;20183;-88
2023/03/08 07:41:14;;;;;;;6.00;4.53;;;2.40;99.90;;;;;;4898725;29;20187;-91
2023/03/08 07:43:41;;;;;;;6.43;4.80;;;2.30;99.90;;;;;;4900345;29;20205;-91
2023/03/08 07:46:07;;;;;;;5.23;4.23;;;2.50;99.90;;;;;;4905405;29;20186;-89
2023/03/08 07:48:46;;;;;;;5.40;3.90;;;2.40;99.90;;;;;;4904967;29;20183;-89
2023/03/08 07:51:12;;;;;;;5.47;4.50;;;2.40;99.90;;;;;;4892393;29;20212;-90
2023/03/08 07:53:40;;;;;;;5.87;4.63;;;2.40;99.90;;;;;;4902341;29;20240;-90
2023/03/08 07:56:06;;;;;;;5.97;4.57;;;2.40;99.90;;;;;;4901575;29;20651;-92
2023/03/08 07:58:32;;;;;;;6.43;4.27;;;2.40;99.90;;;;;;4899140;29;20238;-90
2023/03/08 08:00:57;;;;;;;5.50;4.53;;;2.50;99.90;;;;;;4900851;29;20684;-89
2023/03/08 08:03:23;;;;;;;7.07;4.37;;;2.50;99.90;;;;;;4900810;29;20214;-89
2023/03/08 08:05:50;;;;;;;5.90;3.83;;;2.50;99.90;;;;;;4903531;29;20205;-91
2023/03/08 08:08:15;;;;;;;5.03;3.77;;;2.30;99.90;;;;;;4904675;29;20193;-90
2023/03/08 08:10:42;;;;;;;4.77;3.57;;;2.40;99.90;;;;;;4902391;29;20182;-89
2023/03/08 08:13:08;;;;;;;5.37;4.00;;;2.40;99.90;;;;;;4901859;29;20635;-90
2023/03/08 08:15:34;;;;;;;5.07;3.90;;;2.40;99.90;;;;;;4902794;29;20233;-90
2023/03/08 08:18:00;;;;;;;5.53;4.13;;;2.40;99.90;;;;;;4902886;29;20191;-89
2023/03/08 08:20:27;;;;;;;6.13;3.53;;;2.50;99.90;;;;;;4904464;29;20196;-93
2023/03/08 08:22:55;;;;;;;5.30;3.70;;;2.40;99.90;;;;;;4908016;29;20186;-88
2023/03/08 08:25:22;;;;;;;5.87;4.07;;;2.40;99.90;;;;;;4904776;29;20197;-88
2023/03/08 08:27:49;;;;;;;6.13;4.00;;;2.40;99.90;;;;;;4905406;29;20182;-91
2023/03/08 08:30:15;;;;;;;5.83;4.47;;;2.50;99.90;;;;;;4911531;29;20769;-92
2023/03/08 08:33:02;;;;;;;5.90;4.60;;;2.40;99.90;;;;;;4902417;29;20191;-91
2023/03/08 08:35:29;;;;;;;5.33;4.30;;;2.40;99.90;;;;;;4905424;29;20213;-91
2023/03/08 08:37:55;;;;;;;6.07;4.33;;;2.40;99.90;;;;;;4897293;29;20234;-91
2023/03/08 08:40:21;;;;;;;5.93;4.70;;;2.40;99.90;;;;;;4903676;29;20597;-91
2023/03/08 08:42:46;;;;;;;6.13;5.13;;;2.50;99.90;;;;;;4886817;29;20560;-90
2023/03/08 08:45:13;;;;;;;5.40;3.90;;;2.60;99.90;;;;;;4911428;29;20214;-91
2023/03/08 08:47:39;;;;;;;5.83;4.40;;;2.60;99.90;;;;;;4902766;29;20178;-90
2023/03/08 08:50:04;;;;;;;7.10;5.27;;;2.50;99.90;;;;;;4908198;29;20368;-91
2023/03/08 08:52:32;;;;;;;5.63;4.50;;;2.50;99.90;;;;;;4915376;29;20211;-90
2023/03/08 08:55:00;;;;;;;6.30;4.70;;;2.60;99.90;;;;;;4917598;29;20218;-93
2023/03/08 08:57:29;;;;;;;6.37;4.70;;;2.60;99.90;;;;;;4941643;29;20170;-87
2023/03/08 08:59:54;;;;;;;7.00;4.73;;;2.50;99.90;;;;;;4911862;29;20186;-92
2023/03/08 09:02:22;;;;;;;6.20;4.97;;;2.60;99.90;;;;;;4909166;29;20190;-90
2023/03/08 09:05:09;;;;;;;5.80;4.87;;;2.60;99.90;;;;;;4897900;29;20202;-91
2023/03/08 09:07:38;;;;;;;6.83;5.47;;;2.70;99.90;;;;;;4902986;29;20181;-92
2023/03/08 09:10:05;;;;;;;6.57;5.07;;;2.70;99.90;;;;;;4904344;29;20183;-90
2023/03/08 09:12:31;;;;;;;6.17;5.13;;;2.80;99.90;;;;;;4912734;29;20177;-89
2023/03/08 09:14:58;;;;;;;7.30;5.43;;;2.80;99.90;;;;;;4903630;29;20218;-91
2023/03/08 09:17:34;;;;;;;6.93;5.10;;;3.00;99.90;;;;;;4906397;29;20182;-93
2023/03/08 09:20:03;;;;;;;6.83;4.77;;;2.80;99.90;;;;;;4916678;29;20216;-89
2023/03/08 09:22:29;;;;;;;6.60;5.13;;;2.70;99.90;;;;;;4894910;29;20194;-93
2023/03/08 09:24:55;;;;;;;6.60;5.30;;;2.90;99.90;;;;;;4917326;29;20174;-88
2023/03/08 09:27:24;;;;;;;7.87;5.60;;;2.90;99.90;;;;;;4915599;29;20171;-90
2023/03/08 09:29:51;;;;;;;7.37;6.13;;;2.60;99.90;;;;;;4915099;29;20190;-90
2023/03/08 09:35:35;;;;;;;7.93;5.97;;;2.60;99.90;;;;;;5043208;27;20606;-93
2023/03/08 09:38:51;;;;;;;7.83;6.33;;;2.70;99.90;;;;;;5030570;28;20193;-93
2023/03/08 09:41:38;;;;;;;7.27;5.63;;;2.70;99.90;;;;;;5044682;28;20182;-92
2023/03/08 09:44:10;;;;;;;8.83;5.63;;;2.70;99.90;;;;;;5073351;23;20220;-93
2023/03/08 09:46:45;;;;;;;7.77;6.23;;;2.60;99.90;;;;;;5081788;28;20173;-92
2023/03/08 09:49:26;;;;;;;7.70;5.73;;;2.80;99.90;;;;;;5086156;28;20199;-92
2023/03/08 09:52:09;;;;;;;7.13;5.80;;;2.80;99.90;;;;;;5087662;28;20259;-91
2023/03/08 09:54:41;;;;;;;6.57;5.00;;;2.80;99.90;;;;;;5079180;28;20208;-90
2023/03/08 09:57:15;;;;;;;6.80;5.07;;;2.80;99.90;;;;;;5088022;28;20165;-92
2023/03/08 09:59:53;;;;;;;8.03;6.40;;;2.90;99.90;;;;;;5060145;28;20208;-92
2023/03/08 10:02:43;;;;;;;7.20;5.80;;;3.00;99.90;;;;;;5072104;28;20172;-91
2023/03/08 10:05:40;;;;;;;7.87;5.70;;;3.10;99.90;;;;;;5063920;28;20245;-85
2023/03/08 10:08:27;;;;;;;7.60;5.80;;;3.90;99.90;;;;;;5084014;28;20202;-87
2023/03/08 10:11:06;;;;;;;7.23;5.70;;;4.30;99.90;;;;;;5078846;28;20237;-86
2023/03/08 10:13:51;;;;;;;6.73;6.03;;;4.50;99.90;;;;;;5088821;28;20207;-92
2023/03/08 10:16:31;;;;;;;8.47;6.80;;;4.20;99.90;;;;;;5094935;28;20273;-90
2023/03/08 10:19:16;;;;;;;7.03;5.60;;;3.90;99.90;;;;;;5095674;28;20639;-93
2023/03/08 10:22:11;;;;;;;8.80;5.77;;;3.70;99.90;;;;;;5086023;28;20195;-92
2023/03/08 10:25:03;;;;;;;8.83;6.10;;;3.60;99.90;;;;;;5103975;28;20183;-88
2023/03/08 10:27:33;;;;;;;7.83;5.07;;;3.60;99.90;;;;;;5080616;28;20180;-89
2023/03/08 10:30:17;;;;;;;7.93;5.17;;;3.50;99.90;;;;;;5080112;28;20172;-88
2023/03/08 10:32:50;;;;;;;7.80;5.50;;;3.50;99.90;;;;;;5080040;28;20202;-88
2023/03/08 10:35:32;;;;;;;7.37;5.93;;;3.50;99.90;;;;;;5078145;28;20251;-88
2023/03/08 10:37:58;;;;;;;8.90;6.10;;;3.50;99.90;;;;;;5079684;28;20176;-89
2023/03/08 10:40:24;;;;;;;6.50;5.47;;;3.50;99.90;;;;;;5078272;28;20214;-89
2023/03/08 10:43:30;;;;;;;7.63;6.53;;;3.40;99.90;;;;;;5075153;28;20188;-88
2023/03/08 10:46:00;;;;;;;8.17;5.90;;;3.40;99.90;;;;;;5062694;28;20205;-88
2023/03/08 10:48:27;;;;;;;8.17;6.20;;;3.40;99.90;;;;;;5060555;28;20229;-91
2023/03/08 10:51:04;;;;;;;9.90;6.07;;;3.50;99.90;;;;;;5043658;28;20185;-90
2023/03/08 10:53:31;;;;;;;8.83;5.93;;;3.40;99.90;;;;;;5046399;28;20223;-89
2023/03/08 10:56:00;;;;;;;7.47;6.17;;;3.50;99.90;;;;;;5064382;28;20184;-88
2023/03/08 10:58:28;;;;;;;9.03;7.00;;;3.60;99.90;;;;;;5071011;28;20161;-89
2023/03/08 11:00:55;;;;;;;11.13;6.47;;;3.50;99.90;;;;;;5077658;28;20169;-89
2023/03/08 11:03:31;;;;;;;9.13;7.60;;;3.70;99.90;;;;;;5070022;28;20173;-88
2023/03/08 11:06:25;;;;;;;9.03;6.70;;;3.50;99.90;;;;;;5065262;28;20269;-87
2023/03/08 11:08:58;;;;;;;8.03;6.17;;;3.50;99.90;;;;;;5070577;28;20200;-88
2023/03/08 11:11:27;;;;;;;10.30;7.50;;;3.40;99.90;;;;;;5059228;28;20207;-88
2023/03/08 11:14:01;;;;;;;11.57;8.40;;;3.60;99.90;;;;;;5059371;28;20197;-88
2023/03/08 11:16:47;;;;;;;9.97;7.87;;;3.60;99.90;;;;;;5060217;28;20253;-88
2023/03/08 11:19:32;;;;;;;10.53;8.53;;;3.60;99.90;;;;;;5059538;28;20326;-88
2023/03/08 11:22:13;;;;;;;10.80;7.83;;;3.60;99.90;;;;;;5058976;28;20224;-88
2023/03/08 11:24:59;;;;;;;11.10;8.23;;;3.60;99.90;;;;;;5062984;28;20244;-88
2023/03/08 11:27:54;;;;;;;9.93;8.47;;;3.70;99.90;;;;;;5059640;28;20236;-89
2023/03/08 11:30:56;;;;;;;9.80;7.77;;;3.80;99.90;;;;;;5068867;28;20173;-87
2023/03/08 11:33:56;;;;;;;12.73;9.27;;;3.80;99.90;;;;;;5071868;28;20216;-87
2023/03/08 11:36:46;;;;;;;10.43;8.67;;;3.80;99.90;;;;;;5070777;28;20191;-87
2023/03/08 11:39:49;;;;;;;11.80;8.57;;;3.90;99.90;;;;;;5062260;28;20169;-88
2023/03/08 11:42:55;;;;;;;10.60;8.63;;;3.90;99.90;;;;;;5065833;28;20177;-91
2023/03/08 11:45:23;;;;;;;12.10;8.87;;;3.90;99.90;;;;;;5048920;28;20189;-88
2023/03/08 11:48:18;;;;;;;11.60;9.70;;;4.00;99.90;;;;;;5047086;28;20184;-90
2023/03/08 11:51:02;;;;;;;12.63;8.43;;;4.00;99.90;;;;;;5059951;28;20192;-90
2023/03/08 11:53:43;;;;;;;11.00;8.77;;;4.00;99.90;;;;;;5059950;28;20193;-89
2023/03/08 11:56:36;;;;;;;14.13;9.57;;;3.90;99.90;;;;;;5046207;28;20177;-88
2023/03/08 11:59:18;;;;;;;11.90;9.63;;;3.90;99.90;;;;;;5047325;28;20172;-88
2023/03/08 12:02:13;;;;;;;11.90;9.80;;;3.90;99.90;;;;;;5029724;28;20180;-89
2023/03/08 12:04:43;;;;;;;12.20;9.60;;;4.10;99.90;;;;;;5043458;28;20206;-90
2023/03/08 12:07:26;;;;;;;11.90;10.07;;;4.10;99.90;;;;;;5047755;28;20176;-89
2023/03/08 12:10:19;;;;;;;11.00;9.83;;;4.10;99.90;;;;;;5091915;28;20196;-87
2023/03/08 12:13:36;;;;;;;12.17;10.20;;;4.10;99.90;;;;;;5093922;28;20168;-89
2023/03/08 12:16:45;;;;;;;12.00;10.17;;;4.10;99.90;;;;;;5088471;28;20222;-88
2023/03/08 12:25:56;;;;;;;11.63;9.90;;;4.20;99.90;;;;;;5069017;28;20219;-89
2023/03/08 12:29:00;;;;;;;11.33;9.57;;;4.30;99.90;;;;;;5061091;28;20172;-89
2023/03/08 12:31:44;;;;;;;11.40;9.93;;;4.10;99.90;;;;;;5042264;28;20262;-90
2023/03/08 12:34:28;;;;;;;13.13;10.70;;;4.00;99.90;;;;;;5046284;28;20205;-88
2023/03/08 12:44:43;;;;;;;13.87;11.37;;;4.20;99.90;;;;;;5314927;22;20222;-90
2023/03/08 12:47:12;;;;;;;12.10;10.17;;;4.20;99.90;;;;;;5024388;28;20184;-90
2023/03/08 12:49:45;;;;;;;12.77;10.73;;;4.40;99.90;;;;;;5049827;28;20529;-89
2023/03/08 12:52:30;;;;;;;12.57;10.30;;;4.20;99.90;;;;;;5054865;28;20211;-88
2023/03/08 12:55:20;;;;;;;13.33;10.10;;;4.30;99.90;;;;;;5052640;28;20224;-90
2023/03/08 12:58:00;;;;;;;13.00;11.10;;;4.30;99.90;;;;;;5042431;28;20235;-89
2023/03/08 13:00:32;;;;;;;14.13;11.43;;;4.30;99.90;;;;;;5059917;28;20295;-86
2023/03/08 13:03:13;;;;;;;13.70;11.50;;;4.40;99.90;;;;;;5057086;28;20208;-89
2023/03/08 13:05:46;;;;;;;14.30;10.87;;;4.40;99.90;;;;;;5050894;28;20626;-89
2023/03/08 13:08:15;;;;;;;12.60;10.97;;;4.40;99.90;;;;;;5035702;28;20176;-92
2023/03/08 13:11:09;;;;;;;14.17;11.50;;;4.40;99.90;;;;;;5054888;28;20309;-91
2023/03/08 13:13:42;;;;;;;10.90;9.43;;;4.40;99.90;;;;;;5055044;28;20200;-90
2023/03/08 13:16:14;;;;;;;12.20;10.13;;;4.30;99.90;;;;;;5054571;28;20180;-89
2023/03/08 13:18:47;;;;;;;13.03;10.33;;;4.10;99.90;;;;;;5053223;28;20179;-91
2023/03/08 13:21:25;;;;;;;15.13;11.87;;;4.20;99.90;;;;;;5053879;28;20177;-90
2023/03/08 13:24:13;;;;;;;19.50;11.83;;;4.20;99.90;;;;;;5075594;28;20511;-91
2023/03/08 13:27:08;;;;;;;16.27;13.10;;;4.20;99.90;;;;;;5049925;28;20183;-88
2023/03/08 13:29:34;;;;;;;15.23;12.37;;;4.20;99.90;;;;;;5056193;28;20636;-89
2023/03/08 13:32:17;;;;;;;14.93;13.07;;;4.30;99.90;;;;;;5034719;28;20283;-88
2023/03/08 13:34:45;;;;;;;15.37;12.67;;;4.20;99.90;;;;;;5053748;28;20224;-90
2023/03/08 13:37:31;;;;;;;17.87;14.50;;;4.10;99.90;;;;;;5058094;28;20173;-89
2023/03/08 13:39:59;;;;;;;14.67;11.60;;;4.20;99.90;;;;;;5040078;28;20531;-92
2023/03/08 13:42:54;;;;;;;15.07;12.83;;;4.10;99.90;;;;;;5064420;28;20196;-90
2023/03/08 13:45:23;;;;;;;16.87;13.77;;;4.10;99.90;;;;;;5061227;28;20205;-88